メインページ
METAR-TAF:

METAR-TAF

空港 :

ポートオブスペイン, トリニダード島, トリニダード・トバゴ

緯度: 10-37N, 経度: 061-21W, 海抜: 12m

現時点の気象観測

当レポートは39分前の14:00(UTC)に作成
東/南東の風 7kt
気温 26°C
湿度 84%
気圧 1014 hPa
視程10km以上
高度1500ftの雲は散在している
高度3800ftの千切れ雲あり
近辺でにわか雨

METAR: TTPP 211400Z 12007KT 9999 VCSH SCT015 BKN038 26/23 Q1014 TEMPO SHRA RMK VCSH NE QUAD

時間: 10:39 (14:39 UTC)

予報

当レポートは4時間39分前の10:00(UTC)に作成
予報は21日の 12時(UTC)から 22日の 12時(UTC)まで有効
の風 12kt
視程10km以上
高度2000ftの雲は散在している
21日の 14時(UTC)から 21日の 19時(UTC)まで一時的に
東/南東の風 15kt、最大28ktの突風を伴う
視程: 5000m
高度1500ftの雲は散在している
にわか雨
21日の 23時(UTC)から 22日の 01時(UTC)まで徐々に
の風 5kt

TAF: TTPP 211000Z 2112/2212 10012KT 9999 SCT020 TEMPO 2114/2119 12015G28KT 5000 SHRA SCT015 BECMG 2123/2201 09005KT

4,000以上の空港の気象観測と天気予報(METAR報とTAF報)

利用可能な観測所は地図上に黄色い丸と赤い丸で示す。

丸の上にカーソルを重ねると観測所名を参照できる。

次にクリックすると気象観測と天気予報を参照できる。

マップの切り替え:黒色「×」印の緑ボタンをクリックして拡大、「-」印の緑ボタンをクリックして縮小、緑色の三角印をクリックして隣りの地図に切り替え


METAR-TAF: